This is the latest recevied weather packets stored in our database for station/object GW1544. If no packets are shown the sender has not sent any weather packets the latest 10 day(s).
| Time | Temp. | Humidity | Pressure | Rain* | Wind** | Luminosity | Snow |
|---|---|---|---|---|---|---|---|
| 1777185022 | 15° C | 88% | 1019.9 hPa | 0 mm | - | - | - |
| 1777184672 | 15° C | 88% | 1019.9 hPa | 0 mm | - | - | - |
| 1777183947 | 15° C | 89% | 1019.9 hPa | 0 mm | - | - | - |
| 1777182525 | 14.44° C | 92% | 1019.9 hPa | 0 mm | - | - | - |
| 1777181801 | 13.89° C | 91% | 1019.9 hPa | 0 mm | - | - | - |
| 1777180333 | 13.89° C | 92% | 1019.6 hPa | 0 mm | - | - | - |
| 1777179652 | 13.89° C | 92% | 1019.3 hPa | 0 mm | - | - | - |
| 1777175664 | 14.44° C | 90% | 1018.6 hPa | 0 mm | - | - | - |
| 1777174570 | 15° C | 88% | 1018.6 hPa | 0 mm | - | - | - |
| 1777170649 | 16.67° C | 85% | 1018.6 hPa | 0 mm | - | - | - |
| 1777169539 | 16.67° C | 83% | 1018.6 hPa | 0 mm | - | - | - |
| 1777169191 | 16.67° C | 83% | 1018.6 hPa | 0 mm | - | - | - |
| 1777167746 | 17.22° C | 82% | 1018.2 hPa | 0 mm | - | - | - |
| 1777165943 | 17.22° C | 82% | 1017.9 hPa | 0 mm | - | - | - |
| 1777162340 | 18.89° C | 79% | 1016.9 hPa | 0 mm | - | - | - |
| 1777161994 | 18.89° C | 78% | 1016.9 hPa | 0 mm | - | - | - |
| 1777161617 | 18.89° C | 78% | 1016.5 hPa | 0 mm | - | - | - |
| 1777160547 | 20° C | 74% | 1016.5 hPa | 0 mm | - | - | - |
| 1777160188 | 20.56° C | 73% | 1016.5 hPa | 0 mm | - | - | - |
| 1777158743 | 21.11° C | 71% | 1016.2 hPa | 0 mm | - | - | - |
| 1777157679 | 22.78° C | 61% | 1016.2 hPa | 0 mm | - | - | - |
| 1777150815 | 25.56° C | 58% | 1015.9 hPa | 0 mm | - | - | - |
| 1777149388 | 25.56° C | 58% | 1016.2 hPa | 0 mm | - | - | - |
| 1777149020 | 25.56° C | 55% | 1016.2 hPa | 0 mm | - | - | - |
| 1777148655 | 25.56° C | 61% | 1016.2 hPa | 0 mm | - | - | - |
* Rain since midnight (hover to see other rain measurements)
** Current wind speed in m/s (hover to see current wind gust speed)